Nearby METAR Reports

 

EGNR - Hawarden (aut), United Kingdom
Distance from station: ESE 33mi, 53km
Updated: 21/07/2019 07:50
Partly cloudy
Partly cloudy
 Wind from SW
Wind: SW 8 mph , 13 km/h
Temperature: 17°C
Dew Point: 13°C
Humidity: 77%
Barometer: 1017 hPa
Clouds: Partly cloudy
Visibility: 6 miles , 10 km
Cloud details: Few Clouds 457 m
Partly cloudy 1463 m
2019/07/21 06:50 EGNR 210650Z 22007KT 9999 FEW015 SCT048 17/13 Q1017
EGOV - Valley Raf, United Kingdom
Distance from station: W 33mi, 53km
Updated: 21/07/2019 06:50
Mostly cloudy
Mostly cloudy
 Wind from SSW
Wind: SSW 12 mph , 19 km/h
Temperature: 15°C
Dew Point: 14°C
Humidity: 94%
Barometer: 1016 hPa
Clouds: Mostly cloudy
Visibility: 6 miles , 10 km
Cloud details: Few Clouds 1219 m
Mostly cloudy 1829 m
2019/07/21 05:50 EGOV 210550Z AUTO 21010KT 9999 FEW040/// BKN060/// 15/14 Q1016
 
EGGP - Liverpool Airpor, United Kingdom
Distance from station: E 37mi, 59km
Updated: 21/07/2019 07:50
Clear
Clear
 Wind from S
Wind: S 6 mph , 9 km/h
Temperature: 18°C
Dew Point: 15°C
Humidity: 83%
Barometer: 1017 hPa
Summary: Clear
Visibility: greater than 7 miles , 10 km
2019/07/21 06:50 EGGP 210650Z 19005KT 160V240 CAVOK 18/15 Q1017
EGNH - Blackpool Airpor, United Kingdom
Distance from station: NE 44mi, 72km
Updated: 21/07/2019 07:50
Partly cloudy
Partly cloudy
 Wind from WSW
Wind: WSW 14 mph , 22 km/h
Temperature: 17°C
Dew Point: 14°C
Humidity: 83%
Barometer: 1016 hPa
Clouds: Partly cloudy
Visibility: 6 miles , 10 km
Cloud details: Few Clouds 427 m
Partly cloudy 1433 m
2019/07/21 06:50 EGNH 210650Z 24012KT 9999 FEW014 SCT047 17/14 Q1016
 
EGNO - Wharton, United Kingdom
Distance from station: NE 47mi, 76km
Updated: 19/07/2019 18:50
NOT Current
Mostly cloudy
Mostly cloudy
 Wind from SW
Wind: SW 10 mph , 17 km/h
Temperature: 20°C
Dew Point: 17°C
Humidity: 83%
Barometer: 1003 hPa
Clouds: Mostly cloudy
Visibility: 6 miles , 10 km
Cloud details: Partly cloudy 732 m
Mostly cloudy 1158 m
2019/07/19 17:50 EGNO 191750Z 22009KT 9999 SCT024 BKN038 20/17 Q1003
EGOS - Shawbury Raf, United Kingdom
Distance from station: SE 56mi, 89km
Updated: 21/07/2019 06:50
Overcast
Overcast
 Wind from SSW
Wind: SSW 13 mph , 20 km/h
Temperature: 15°C
Dew Point: 12°C
Humidity: 82%
Barometer: 1017 hPa
Clouds: Overcast
Visibility: 6 miles , 10 km
Cloud details: Overcast 1524 m
2019/07/21 05:50 EGOS 210550Z AUTO 21011KT 9999 OVC050/// 15/12 Q1017
 
EGCC - Manchester Intl, United Kingdom
Distance from station: E 61mi, 98km
Updated: 21/07/2019 07:50
Clear
Clear
 Wind from S
Wind: S 6 mph , 9 km/h
Temperature: 16°C
Dew Point: 13°C
Humidity: 83%
Barometer: 1017 hPa
Clouds: Clear
Visibility: 6 miles , 10 km
2019/07/21 06:50 EGCC 210650Z AUTO 19005KT 150V220 9999 NCD 16/13 Q1017
EGNS - Isle Of Man/Rona, United Kingdom
Distance from station: NW 66mi, 107km
Updated: 21/07/2019 07:50
Few Clouds
Few Clouds
 Wind from SW
Wind: SW 8 mph , 13 km/h
Temperature: 15°C
Dew Point: 13°C
Humidity: 88%
Barometer: 1014 hPa
Clouds: Few Clouds
Visibility: 6 miles , 10 km
Cloud details: Few Clouds 488 m
2019/07/21 06:50 EGNS 210650Z 23007KT 9999 FEW016 15/13 Q1014 NOSIG
 
EGNM - Leeds And Bradfo, United Kingdom
Distance from station: ENE 95mi, 153km
Updated: 21/07/2019 07:50
Few Clouds
Few Clouds
 Wind from SSW
Wind: SSW 6 mph , 9 km/h
Temperature: 15°C
Dew Point: 12°C
Humidity: 82%
Barometer: 1017 hPa
Clouds: Few Clouds
Visibility: 6 miles , 10 km
Cloud details: Few Clouds 914 m
2019/07/21 06:50 EGNM 210650Z 21005KT 160V240 9999 FEW030 15/12 Q1017
EGBB - Birmingham Airpo, United Kingdom
Distance from station: ESE 100mi, 161km
Updated: 21/07/2019 07:50
Clear
Clear
 Wind from SSW
Wind: SSW 7 mph , 11 km/h
Temperature: 15°C
Dew Point: 12°C
Humidity: 82%
Barometer: 1018 hPa
Summary: Clear
Visibility: greater than 7 miles , 10 km
2019/07/21 06:50 EGBB 210650Z 21006KT 150V250 CAVOK 15/12 Q1018